Time;durP1;ratioP1;P1;durP2;ratioP2;P2;SDS_P1;SDS_P2;PMS_P1;PMS_P2;Temp;Humidity;BMP_temperature;BMP_pressure;BME280_temperature;BME280_humidity;BME280_pressure;Samples;Min_cycle;Max_cycle;Signal;HPM_P1;HPM_P2
2021/12/03 00:00:08;;;;;;;5.00;4.50;;;;;;;;;;5051467;28;20228;-64
2021/12/03 00:02:35;;;;;;;7.40;4.60;;;;;;;;;;5061010;28;20215;-62
2021/12/03 00:05:02;;;;;;;5.83;4.57;;;;;;;;;;5060825;28;20235;-62
2021/12/03 00:07:30;;;;;;;6.20;4.90;;;;;;;;;;5081093;28;20295;-63
2021/12/03 00:09:57;;;;;;;5.80;5.20;;;;;;;;;;5078267;28;20698;-63
2021/12/03 00:12:25;;;;;;;6.33;4.80;;;;;;;;;;5072816;28;20219;-62
2021/12/03 00:14:52;;;;;;;4.97;4.53;;;;;;;;;;5056091;28;20239;-62
2021/12/03 00:17:19;;;;;;;5.23;4.40;;;;;;;;;;5060347;28;20207;-64
2021/12/03 00:19:47;;;;;;;5.10;4.70;;;;;;;;;;5071720;28;20235;-63
2021/12/03 00:22:14;;;;;;;6.10;5.43;;;;;;;;;;5071385;28;20216;-64
2021/12/03 00:24:42;;;;;;;5.40;4.90;;;;;;;;;;5056969;28;20207;-62
2021/12/03 00:27:09;;;;;;;7.80;5.77;;;;;;;;;;5073051;28;20237;-63
2021/12/03 00:29:36;;;;;;;4.93;4.43;;;;;;;;;;5062464;28;20362;-64
2021/12/03 00:32:04;;;;;;;7.20;5.20;;;;;;;;;;5059616;28;20299;-62
2021/12/03 00:34:31;;;;;;;6.87;5.13;;;;;;;;;;5069091;28;20687;-63
2021/12/03 00:36:59;;;;;;;5.40;4.90;;;;;;;;;;5076624;28;20617;-63
2021/12/03 00:39:26;;;;;;;5.37;4.67;;;;;;;;;;5073807;28;22473;-63
2021/12/03 00:42:00;;;;;;;5.23;4.73;;;;;;;;;;5067869;28;20207;-64
2021/12/03 00:44:29;;;;;;;5.13;4.60;;;;;;;;;;5071150;28;20204;-64
2021/12/03 00:46:58;;;;;;;6.20;4.67;;;;;;;;;;5077077;28;20214;-63
2021/12/03 00:49:26;;;;;;;7.63;3.87;;;;;;;;;;5076889;28;20231;-62
2021/12/03 00:51:54;;;;;;;6.80;4.47;;;;;;;;;;5075915;28;20208;-63
2021/12/03 00:54:21;;;;;;;6.90;5.07;;;;;;;;;;5063961;28;20240;-64
2021/12/03 00:56:48;;;;;;;5.20;4.70;;;;;;;;;;5068963;28;20212;-62
2021/12/03 00:59:16;;;;;;;6.57;5.47;;;;;;;;;;5055352;28;20225;-63
2021/12/03 01:01:43;;;;;;;5.90;5.30;;;;;;;;;;5055295;28;20628;-64
2021/12/03 01:04:11;;;;;;;6.33;5.33;;;;;;;;;;5061471;28;20230;-63
2021/12/03 01:06:38;;;;;;;6.57;5.00;;;;;;;;;;5058187;28;20208;-63
2021/12/03 01:09:06;;;;;;;5.93;5.00;;;;;;;;;;5063797;28;20252;-62
2021/12/03 01:11:34;;;;;;;8.00;5.40;;;;;;;;;;5072226;28;20206;-64
2021/12/03 01:14:01;;;;;;;5.57;4.53;;;;;;;;;;5061219;28;20201;-63
2021/12/03 01:16:30;;;;;;;5.80;4.23;;;;;;;;;;5058620;28;20203;-62
2021/12/03 01:18:58;;;;;;;4.90;4.37;;;;;;;;;;5077775;28;20206;-63
2021/12/03 01:21:26;;;;;;;6.37;4.80;;;;;;;;;;5067355;28;20209;-63
2021/12/03 01:23:56;;;;;;;6.27;4.37;;;;;;;;;;5052488;28;20211;-63
2021/12/03 01:26:24;;;;;;;4.90;4.17;;;;;;;;;;5076659;28;20204;-62
2021/12/03 01:28:51;;;;;;;5.10;4.20;;;;;;;;;;5075406;28;20239;-64
2021/12/03 01:31:19;;;;;;;4.47;3.77;;;;;;;;;;5074730;28;20296;-62
2021/12/03 01:33:48;;;;;;;5.63;3.87;;;;;;;;;;5052345;28;20668;-63
2021/12/03 01:36:16;;;;;;;6.73;4.70;;;;;;;;;;5055874;28;20254;-63
2021/12/03 01:38:44;;;;;;;4.40;3.97;;;;;;;;;;5058040;28;20215;-63
2021/12/03 01:41:12;;;;;;;4.77;4.27;;;;;;;;;;5072204;28;20326;-63
2021/12/03 01:43:40;;;;;;;5.30;4.80;;;;;;;;;;5056505;28;20631;-64
2021/12/03 01:46:08;;;;;;;5.00;4.50;;;;;;;;;;5061558;28;20215;-63
2021/12/03 01:48:37;;;;;;;5.90;4.40;;;;;;;;;;5066688;28;20242;-63
2021/12/03 01:51:05;;;;;;;4.60;4.20;;;;;;;;;;5066571;28;20232;-63
2021/12/03 01:53:34;;;;;;;5.93;4.10;;;;;;;;;;5063526;28;20218;-63
2021/12/03 01:56:08;;;;;;;4.70;4.20;;;;;;;;;;5053732;28;20227;-63
2021/12/03 01:58:35;;;;;;;4.43;3.93;;;;;;;;;;5062921;28;20208;-63
2021/12/03 02:01:06;;;;;;;5.50;4.63;;;;;;;;;;5064886;28;20251;-63
2021/12/03 02:03:35;;;;;;;5.77;4.40;;;;;;;;;;5064783;28;20207;-62
2021/12/03 02:06:03;;;;;;;5.57;4.83;;;;;;;;;;5076007;28;20212;-63
2021/12/03 02:08:30;;;;;;;6.10;5.40;;;;;;;;;;5080845;28;20230;-63
2021/12/03 02:10:58;;;;;;;7.13;4.60;;;;;;;;;;5072920;28;20231;-63
2021/12/03 02:13:25;;;;;;;5.73;5.07;;;;;;;;;;5065716;28;20346;-61
2021/12/03 02:15:53;;;;;;;6.03;5.03;;;;;;;;;;5079621;28;20231;-63
2021/12/03 02:18:20;;;;;;;6.57;5.40;;;;;;;;;;5079477;28;20240;-62
2021/12/03 02:20:52;;;;;;;5.37;4.77;;;;;;;;;;5060227;28;20266;-64
2021/12/03 02:23:20;;;;;;;5.47;4.77;;;;;;;;;;5068556;28;20203;-63
2021/12/03 02:25:49;;;;;;;7.87;5.67;;;;;;;;;;5057513;28;20929;-63
2021/12/03 02:28:17;;;;;;;6.30;5.27;;;;;;;;;;5057390;28;20213;-62
2021/12/03 02:30:47;;;;;;;6.97;5.43;;;;;;;;;;5060559;28;20726;-64
2021/12/03 02:33:15;;;;;;;6.50;5.63;;;;;;;;;;5074130;28;20202;-64
2021/12/03 02:35:44;;;;;;;6.50;5.80;;;;;;;;;;5082764;28;20234;-64
2021/12/03 02:38:13;;;;;;;7.97;5.93;;;;;;;;;;5057225;28;20214;-63
2021/12/03 02:40:41;;;;;;;6.37;4.83;;;;;;;;;;5058965;28;20222;-62
2021/12/03 02:43:09;;;;;;;6.10;4.80;;;;;;;;;;5063907;28;20659;-65
2021/12/03 02:45:36;;;;;;;5.97;5.37;;;;;;;;;;5067942;28;20256;-63
2021/12/03 02:48:04;;;;;;;6.93;4.90;;;;;;;;;;5076408;28;20219;-62
2021/12/03 02:50:31;;;;;;;6.33;5.17;;;;;;;;;;5063832;28;20597;-62
2021/12/03 02:53:00;;;;;;;5.70;5.20;;;;;;;;;;5066048;28;20212;-63
2021/12/03 02:55:27;;;;;;;5.80;5.20;;;;;;;;;;5060540;28;20235;-64
2021/12/03 02:57:55;;;;;;;5.97;4.73;;;;;;;;;;5074137;28;21358;-64
2021/12/03 03:00:24;;;;;;;5.60;4.87;;;;;;;;;;5076856;28;20234;-64
2021/12/03 03:02:52;;;;;;;6.90;5.77;;;;;;;;;;5079957;28;20274;-63
2021/12/03 03:05:21;;;;;;;7.47;6.67;;;;;;;;;;5079358;28;20218;-63
2021/12/03 03:07:48;;;;;;;6.50;5.87;;;;;;;;;;5076578;28;22020;-64
2021/12/03 03:10:18;;;;;;;5.97;5.37;;;;;;;;;;5083147;28;20229;-63
2021/12/03 03:12:47;;;;;;;7.43;5.70;;;;;;;;;;5075964;28;20229;-63
2021/12/03 03:15:16;;;;;;;7.07;5.43;;;;;;;;;;5073652;28;20232;-63
2021/12/03 03:17:43;;;;;;;5.37;4.60;;;;;;;;;;5072908;28;20211;-62
2021/12/03 03:20:12;;;;;;;6.83;5.37;;;;;;;;;;5062071;28;20787;-63
2021/12/03 03:22:40;;;;;;;7.43;5.20;;;;;;;;;;5064693;28;20205;-64
2021/12/03 03:25:09;;;;;;;5.40;4.60;;;;;;;;;;5061291;28;20210;-63
2021/12/03 03:27:36;;;;;;;4.93;4.43;;;;;;;;;;5062714;28;20210;-63
2021/12/03 03:30:06;;;;;;;4.37;3.90;;;;;;;;;;5068580;28;20227;-62
2021/12/03 03:32:33;;;;;;;5.70;4.00;;;;;;;;;;5067884;28;20265;-64
2021/12/03 03:35:01;;;;;;;6.37;4.40;;;;;;;;;;5066732;28;20294;-64
2021/12/03 03:37:28;;;;;;;4.77;4.30;;;;;;;;;;5072345;28;20199;-64
2021/12/03 03:39:55;;;;;;;5.27;4.00;;;;;;;;;;5060821;28;20864;-63
2021/12/03 03:42:22;;;;;;;6.20;5.13;;;;;;;;;;5065445;28;20217;-62
2021/12/03 03:44:50;;;;;;;4.40;3.97;;;;;;;;;;5052306;28;20203;-63
2021/12/03 03:47:17;;;;;;;4.90;4.40;;;;;;;;;;5080068;28;20254;-62
2021/12/03 03:49:45;;;;;;;4.40;4.00;;;;;;;;;;5062005;28;20897;-63
2021/12/03 03:52:12;;;;;;;5.40;4.53;;;;;;;;;;5063663;28;20202;-62
2021/12/03 03:54:40;;;;;;;5.30;3.87;;;;;;;;;;5063905;28;20239;-62
2021/12/03 03:57:07;;;;;;;4.70;4.20;;;;;;;;;;5069121;28;20748;-63
2021/12/03 03:59:35;;;;;;;6.07;4.10;;;;;;;;;;5077718;28;23398;-63
2021/12/03 04:02:02;;;;;;;5.10;4.60;;;;;;;;;;5058556;28;20253;-64
2021/12/03 04:04:30;;;;;;;6.50;4.33;;;;;;;;;;5063041;28;20209;-63
2021/12/03 04:06:57;;;;;;;5.77;4.30;;;;;;;;;;5067981;28;20822;-64
2021/12/03 04:09:25;;;;;;;4.53;4.00;;;;;;;;;;5052942;28;20230;-64
2021/12/03 04:11:52;;;;;;;4.73;4.23;;;;;;;;;;5058150;28;20572;-64
2021/12/03 04:14:19;;;;;;;5.70;4.43;;;;;;;;;;5059856;28;20255;-65
2021/12/03 04:16:48;;;;;;;4.60;4.20;;;;;;;;;;5059084;28;20232;-63
2021/12/03 04:19:17;;;;;;;5.40;4.50;;;;;;;;;;5071044;28;20242;-63
2021/12/03 04:21:47;;;;;;;5.67;4.80;;;;;;;;;;5068109;28;20212;-63
2021/12/03 04:24:15;;;;;;;8.10;5.20;;;;;;;;;;5060157;28;20208;-64
2021/12/03 04:26:42;;;;;;;5.10;4.03;;;;;;;;;;5073051;28;20215;-63
2021/12/03 04:29:10;;;;;;;4.50;3.87;;;;;;;;;;5057944;28;20559;-64
2021/12/03 04:31:40;;;;;;;5.00;4.40;;;;;;;;;;5078114;28;20235;-63
2021/12/03 04:34:08;;;;;;;6.70;3.83;;;;;;;;;;5073658;28;20203;-63
2021/12/03 04:36:39;;;;;;;7.20;4.40;;;;;;;;;;5062810;28;20252;-63
2021/12/03 04:39:07;;;;;;;6.10;5.17;;;;;;;;;;5061096;28;20203;-62
2021/12/03 04:41:34;;;;;;;5.10;4.60;;;;;;;;;;5048167;28;20287;-63
2021/12/03 04:44:02;;;;;;;5.10;4.27;;;;;;;;;;5053316;28;20195;-63
2021/12/03 04:46:29;;;;;;;5.60;4.87;;;;;;;;;;5061803;28;20214;-61
2021/12/03 04:48:57;;;;;;;5.07;4.57;;;;;;;;;;5078772;28;20786;-63
2021/12/03 04:51:24;;;;;;;5.43;4.47;;;;;;;;;;5060218;28;20198;-62
2021/12/03 04:53:52;;;;;;;5.67;4.60;;;;;;;;;;5061047;28;20568;-62
2021/12/03 04:56:19;;;;;;;6.70;5.10;;;;;;;;;;5048642;28;20224;-63
2021/12/03 04:58:47;;;;;;;6.23;5.37;;;;;;;;;;5072273;28;20653;-63
2021/12/03 05:01:14;;;;;;;5.77;5.03;;;;;;;;;;5061649;28;20267;-61
2021/12/03 05:03:42;;;;;;;5.80;5.20;;;;;;;;;;5059635;28;20266;-62
2021/12/03 05:06:14;;;;;;;7.73;4.47;;;;;;;;;;5070286;28;20881;-63
2021/12/03 05:08:42;;;;;;;5.47;4.23;;;;;;;;;;5053472;28;20262;-62
2021/12/03 05:11:09;;;;;;;5.23;4.10;;;;;;;;;;5056950;28;20222;-63
2021/12/03 05:13:38;;;;;;;6.50;4.53;;;;;;;;;;5059783;28;20260;-63
2021/12/03 05:16:06;;;;;;;4.70;4.10;;;;;;;;;;5059124;28;20727;-63
2021/12/03 05:18:36;;;;;;;4.37;3.63;;;;;;;;;;5057261;28;20207;-61
2021/12/03 05:21:04;;;;;;;5.50;4.30;;;;;;;;;;5032785;28;1200503;-63
2021/12/03 05:23:32;;;;;;;5.00;4.40;;;;;;;;;;5079002;28;20607;-62
2021/12/03 05:26:00;;;;;;;7.07;4.57;;;;;;;;;;5065780;28;20198;-62
2021/12/03 05:28:28;;;;;;;13.20;7.63;;;;;;;;;;5074019;28;20202;-61
2021/12/03 05:30:57;;;;;;;12.83;8.60;;;;;;;;;;5065734;28;20231;-63
2021/12/03 05:33:25;;;;;;;5.73;4.40;;;;;;;;;;5070466;28;20239;-63
2021/12/03 05:35:53;;;;;;;4.83;4.33;;;;;;;;;;5043750;28;20341;-62
2021/12/03 05:38:20;;;;;;;5.33;4.40;;;;;;;;;;5075737;28;20678;-62
2021/12/03 05:40:48;;;;;;;6.33;4.50;;;;;;;;;;5063018;28;20231;-64
2021/12/03 05:43:16;;;;;;;5.93;4.93;;;;;;;;;;5059881;28;20202;-63
2021/12/03 05:45:44;;;;;;;4.90;4.23;;;;;;;;;;5072505;28;20276;-63
2021/12/03 05:48:13;;;;;;;5.23;4.73;;;;;;;;;;5060304;28;20207;-63
2021/12/03 05:50:41;;;;;;;6.77;4.53;;;;;;;;;;5065689;28;20236;-63
2021/12/03 05:53:08;;;;;;;4.50;4.10;;;;;;;;;;5063455;28;20684;-62
2021/12/03 05:55:36;;;;;;;5.87;3.83;;;;;;;;;;5063783;28;20228;-63
2021/12/03 05:58:03;;;;;;;6.37;4.20;;;;;;;;;;5063557;28;20214;-62
2021/12/03 06:00:32;;;;;;;5.53;4.43;;;;;;;;;;5061604;28;20233;-63
2021/12/03 06:03:01;;;;;;;4.23;3.93;;;;;;;;;;5065993;28;20289;-63
2021/12/03 06:05:29;;;;;;;6.60;4.30;;;;;;;;;;5075001;28;20217;-63
2021/12/03 06:07:57;;;;;;;5.63;4.07;;;;;;;;;;5073354;28;20205;-63
2021/12/03 06:10:26;;;;;;;4.67;4.20;;;;;;;;;;5078580;28;20867;-62
2021/12/03 06:12:54;;;;;;;6.00;4.83;;;;;;;;;;5082256;28;20209;-62
2021/12/03 06:15:22;;;;;;;5.80;4.90;;;;;;;;;;5075910;28;23217;-63
2021/12/03 06:17:49;;;;;;;5.10;4.43;;;;;;;;;;5074604;28;20221;-63
2021/12/03 06:20:18;;;;;;;5.33;4.30;;;;;;;;;;5053746;28;20292;-63
2021/12/03 06:22:46;;;;;;;5.97;4.10;;;;;;;;;;5060629;28;20203;-63
2021/12/03 06:25:17;;;;;;;5.70;4.60;;;;;;;;;;5064153;28;20225;-63
2021/12/03 06:27:44;;;;;;;5.53;4.67;;;;;;;;;;5072145;28;20264;-64
2021/12/03 06:30:14;;;;;;;4.23;3.60;;;;;;;;;;5076128;28;20222;-63
2021/12/03 06:32:42;;;;;;;5.33;4.63;;;;;;;;;;5077132;28;20638;-63
2021/12/03 06:35:10;;;;;;;4.53;3.97;;;;;;;;;;5074179;28;20680;-63
2021/12/03 06:37:38;;;;;;;4.50;3.73;;;;;;;;;;5062968;28;20280;-63
2021/12/03 06:40:07;;;;;;;4.43;4.03;;;;;;;;;;5057927;28;20221;-64
2021/12/03 06:42:34;;;;;;;5.03;4.30;;;;;;;;;;5083487;28;20658;-63
2021/12/03 06:45:05;;;;;;;5.43;4.47;;;;;;;;;;5056043;28;20203;-62
2021/12/03 06:47:33;;;;;;;4.67;4.27;;;;;;;;;;5074376;28;20664;-64
2021/12/03 06:50:02;;;;;;;7.43;4.30;;;;;;;;;;5069976;28;20243;-64
2021/12/03 06:52:32;;;;;;;5.53;4.17;;;;;;;;;;5076586;28;20206;-64
2021/12/03 06:55:02;;;;;;;6.13;4.13;;;;;;;;;;5078661;28;20640;-63
2021/12/03 06:57:30;;;;;;;6.40;4.33;;;;;;;;;;5067482;28;20238;-64
2021/12/03 06:59:57;;;;;;;8.27;4.80;;;;;;;;;;5077429;28;20230;-63
2021/12/03 07:02:25;;;;;;;4.90;4.40;;;;;;;;;;5058410;28;20271;-62
2021/12/03 07:04:52;;;;;;;4.90;4.30;;;;;;;;;;5056640;28;20262;-61
2021/12/03 07:07:20;;;;;;;4.63;4.23;;;;;;;;;;5061517;28;20231;-62
2021/12/03 07:09:48;;;;;;;5.13;4.37;;;;;;;;;;5060069;28;20239;-63
2021/12/03 07:12:16;;;;;;;5.47;3.90;;;;;;;;;;5052074;28;20201;-63
2021/12/03 07:14:43;;;;;;;6.40;4.20;;;;;;;;;;5074210;28;20608;-63
2021/12/03 07:17:10;;;;;;;5.67;4.37;;;;;;;;;;5058647;28;21061;-64
2021/12/03 07:19:38;;;;;;;4.27;3.87;;;;;;;;;;5055789;28;20291;-63
2021/12/03 07:22:05;;;;;;;4.87;3.87;;;;;;;;;;5063566;28;20665;-63
2021/12/03 07:24:34;;;;;;;4.60;3.90;;;;;;;;;;5061586;28;20209;-64
2021/12/03 07:27:01;;;;;;;5.83;4.17;;;;;;;;;;5065895;28;20212;-63
2021/12/03 07:29:31;;;;;;;4.30;3.90;;;;;;;;;;5067792;28;20866;-63
2021/12/03 07:31:59;;;;;;;4.50;4.10;;;;;;;;;;5079478;28;20230;-63
2021/12/03 07:34:26;;;;;;;4.77;4.20;;;;;;;;;;5073301;28;20216;-64
2021/12/03 07:36:54;;;;;;;4.67;3.87;;;;;;;;;;5061778;28;20257;-62
2021/12/03 07:39:21;;;;;;;4.30;3.90;;;;;;;;;;5073209;28;20290;-62
2021/12/03 07:41:48;;;;;;;4.53;4.07;;;;;;;;;;5077668;28;20208;-62
2021/12/03 07:44:16;;;;;;;5.93;4.07;;;;;;;;;;5062621;28;20202;-63
2021/12/03 07:46:43;;;;;;;5.20;4.40;;;;;;;;;;5059934;28;20792;-62
2021/12/03 07:49:10;;;;;;;5.70;4.70;;;;;;;;;;5069190;28;20260;-63
2021/12/03 07:51:38;;;;;;;26.37;16.40;;;;;;;;;;5074275;28;20298;-63
2021/12/03 07:54:05;;;;;;;7.67;5.67;;;;;;;;;;5051442;28;20210;-63
2021/12/03 07:56:33;;;;;;;7.93;6.13;;;;;;;;;;5055931;28;20225;-63
2021/12/03 07:59:00;;;;;;;8.20;5.90;;;;;;;;;;5071950;28;22112;-62
2021/12/03 08:01:27;;;;;;;6.90;4.70;;;;;;;;;;5068091;28;20256;-62
2021/12/03 08:03:56;;;;;;;6.83;4.73;;;;;;;;;;5066235;28;20211;-62
2021/12/03 08:06:23;;;;;;;5.93;4.70;;;;;;;;;;5041725;28;20241;-62
2021/12/03 08:08:51;;;;;;;5.50;4.00;;;;;;;;;;5073012;28;20615;-63
2021/12/03 08:11:18;;;;;;;4.73;4.33;;;;;;;;;;5063007;28;20225;-62
2021/12/03 08:13:46;;;;;;;4.50;4.10;;;;;;;;;;5052272;28;20198;-62
2021/12/03 08:16:13;;;;;;;7.50;4.13;;;;;;;;;;5068729;28;20236;-64
2021/12/03 08:18:41;;;;;;;5.23;3.73;;;;;;;;;;5061102;28;20218;-62
2021/12/03 08:21:09;;;;;;;4.00;3.60;;;;;;;;;;5049889;28;20229;-62
2021/12/03 08:23:36;;;;;;;5.33;4.00;;;;;;;;;;5048318;28;20221;-62
2021/12/03 08:26:04;;;;;;;4.87;4.40;;;;;;;;;;5053511;28;20206;-64
2021/12/03 08:28:32;;;;;;;5.07;4.27;;;;;;;;;;5060690;28;20736;-62
2021/12/03 08:31:00;;;;;;;6.30;4.70;;;;;;;;;;5074342;28;20241;-62
2021/12/03 08:33:27;;;;;;;4.57;3.83;;;;;;;;;;5073113;28;20261;-62
2021/12/03 08:35:55;;;;;;;5.77;4.20;;;;;;;;;;5075607;28;20263;-63
2021/12/03 08:38:22;;;;;;;5.60;4.57;;;;;;;;;;5076526;28;20264;-64
2021/12/03 08:41:07;;;;;;;5.33;4.07;;;;;;;;;;5058797;28;20229;-61
2021/12/03 08:43:35;;;;;;;5.40;4.20;;;;;;;;;;5066918;28;20229;-63
2021/12/03 08:46:11;;;;;;;7.70;5.53;;;;;;;;;;5063038;28;20206;-63
2021/12/03 08:48:43;;;;;;;6.43;4.83;;;;;;;;;;5060006;28;20259;-64
2021/12/03 08:56:26;;;;;;;6.80;4.60;;;;;;;;;;5059935;28;20649;-63
2021/12/03 08:58:54;;;;;;;4.50;4.10;;;;;;;;;;5062713;28;20219;-64
2021/12/03 09:01:21;;;;;;;3.73;3.43;;;;;;;;;;5077309;28;20725;-61
2021/12/03 09:03:49;;;;;;;5.47;4.20;;;;;;;;;;5072522;28;20213;-62
2021/12/03 09:06:16;;;;;;;4.27;3.83;;;;;;;;;;5060094;28;20626;-63
2021/12/03 09:08:43;;;;;;;4.67;3.87;;;;;;;;;;5058511;28;20686;-62
2021/12/03 09:11:11;;;;;;;4.90;4.43;;;;;;;;;;5062261;28;20746;-62
2021/12/03 09:13:40;;;;;;;4.80;3.97;;;;;;;;;;5073422;28;20217;-63
2021/12/03 09:16:14;;;;;;;5.17;4.30;;;;;;;;;;5075400;28;20226;-64
2021/12/03 09:18:45;;;;;;;5.17;3.93;;;;;;;;;;5071949;28;20619;-63
2021/12/03 09:21:32;;;;;;;8.43;4.50;;;;;;;;;;5063838;28;20234;-62
2021/12/03 09:26:31;;;;;;;5.53;4.40;;;;;;;;;;5060406;28;20269;-63
2021/12/03 09:29:08;;;;;;;4.33;3.93;;;;;;;;;;5071933;28;20235;-62
2021/12/03 09:31:37;;;;;;;14.33;9.97;;;;;;;;;;5073121;28;20844;-62
2021/12/03 09:34:09;;;;;;;9.60;7.47;;;;;;;;;;5059537;28;20700;-63
2021/12/03 09:36:41;;;;;;;6.30;5.70;;;;;;;;;;5060288;28;20592;-62
2021/12/03 09:39:09;;;;;;;8.30;7.43;;;;;;;;;;5059202;28;20204;-63
2021/12/03 09:41:37;;;;;;;9.87;8.63;;;;;;;;;;5061066;28;20202;-62
2021/12/03 09:44:04;;;;;;;8.70;5.83;;;;;;;;;;5056437;28;20278;-62
2021/12/03 09:46:32;;;;;;;7.50;6.33;;;;;;;;;;5066136;28;20581;-62
2021/12/03 09:51:43;;;;;;;5.23;4.73;;;;;;;;;;5056456;28;20217;-62
2021/12/03 09:56:38;;;;;;;5.70;5.20;;;;;;;;;;5054889;28;20242;-62
2021/12/03 09:59:36;;;;;;;4.77;4.27;;;;;;;;;;5059334;28;20213;-61
2021/12/03 10:08:36;;;;;;;4.10;3.80;;;;;;;;;;5051904;28;20285;-63
2021/12/03 10:19:01;;;;;;;5.40;3.60;;;;;;;;;;5064502;28;20209;-63
2021/12/03 10:30:26;;;;;;;3.90;3.60;;;;;;;;;;5061291;28;20725;-62
2021/12/03 10:33:29;;;;;;;3.60;3.30;;;;;;;;;;5075153;28;20217;-62
2021/12/03 10:38:42;;;;;;;3.50;3.20;;;;;;;;;;5065318;28;20721;-63
2021/12/03 10:51:47;;;;;;;3.40;3.20;;;;;;;;;;5058494;28;20208;-63
2021/12/03 12:32:55;;;;;;;3.43;2.80;;;;;;;;;;5060499;28;20672;-63
2021/12/03 14:07:46;;;;;;;3.40;3.10;;;;;;;;;;5061070;28;20622;-63
2021/12/03 14:41:13;;;;;;;6.23;4.50;;;;;;;;;;5000357;28;20227;-63
2021/12/03 14:43:48;;;;;;;6.10;3.73;;;;;;;;;;5053985;28;20209;-62
2021/12/03 14:46:36;;;;;;;6.30;4.03;;;;;;;;;;5059116;28;21755;-63
2021/12/03 14:57:09;;;;;;;4.17;3.63;;;;;;;;;;5057146;28;20254;-63
2021/12/03 14:59:41;;;;;;;18.93;8.23;;;;;;;;;;5077641;28;20733;-62
2021/12/03 15:07:27;;;;;;;47.77;21.03;;;;;;;;;;5060253;28;20204;-63
2021/12/03 15:09:55;;;;;;;4.40;3.20;;;;;;;;;;5083083;28;20221;-62
2021/12/03 15:12:58;;;;;;;3.77;3.43;;;;;;;;;;5076166;28;20336;-61
2021/12/03 15:31:02;;;;;;;5.83;3.93;;;;;;;;;;5060170;28;20224;-62
2021/12/03 15:33:52;;;;;;;4.70;3.90;;;;;;;;;;5059819;28;20263;-62
2021/12/03 15:36:26;;;;;;;5.60;3.77;;;;;;;;;;5071072;28;20217;-61
2021/12/03 15:58:20;;;;;;;5.60;4.77;;;;;;;;;;5056511;28;20256;-62
2021/12/03 16:06:28;;;;;;;6.18;5.50;;;;;;;;;;5054681;28;20473;-62
2021/12/03 16:08:53;;;;;;;5.47;4.57;;;;;;;;;;5046852;28;20619;-62
2021/12/03 16:11:36;;;;;;;7.93;5.20;;;;;;;;;;5048100;28;20779;-63
2021/12/03 16:19:32;;;;;;;6.47;5.60;;;;;;;;;;5048358;28;20235;-63
2021/12/03 16:51:58;;;;;;;5.50;4.60;;;;;;;;;;5053760;28;20212;-63
2021/12/03 16:54:53;;;;;;;6.47;5.13;;;;;;;;;;5076767;28;20199;-62
2021/12/03 16:57:25;;;;;;;5.63;5.13;;;;;;;;;;5057791;28;20211;-64
2021/12/03 16:59:53;;;;;;;7.47;5.67;;;;;;;;;;5074738;28;20249;-63
2021/12/03 17:02:31;;;;;;;7.13;5.40;;;;;;;;;;5064792;28;20214;-61
2021/12/03 17:12:56;;;;;;;6.50;5.27;;;;;;;;;;5054756;28;20213;-63
2021/12/03 17:48:40;;;;;;;11.37;7.23;;;;;;;;;;5066423;28;20207;-63
2021/12/03 17:56:29;;;;;;;8.60;6.70;;;;;;;;;;5063190;28;20716;-62
2021/12/03 17:59:20;;;;;;;10.47;8.47;;;;;;;;;;5061861;28;20546;-62
2021/12/03 18:01:48;;;;;;;7.70;6.87;;;;;;;;;;5065801;28;20662;-63
2021/12/03 18:45:18;;;;;;;7.87;7.07;;;;;;;;;;5055807;28;20319;-63
2021/12/03 18:53:35;;;;;;;10.37;7.07;;;;;;;;;;5061891;28;20209;-63
2021/12/03 18:56:06;;;;;;;8.33;7.27;;;;;;;;;;5080524;28;20205;-62
2021/12/03 18:58:34;;;;;;;9.47;7.90;;;;;;;;;;5065621;28;20206;-62
2021/12/03 19:01:01;;;;;;;9.63;7.50;;;;;;;;;;5078494;28;20223;-64
2021/12/03 19:06:04;;;;;;;10.07;7.70;;;;;;;;;;5057428;28;20210;-62
2021/12/03 19:08:40;;;;;;;9.70;7.93;;;;;;;;;;5058145;28;20202;-62
2021/12/03 19:11:20;;;;;;;11.63;8.57;;;;;;;;;;5074949;28;20259;-63
2021/12/03 19:13:48;;;;;;;9.73;8.37;;;;;;;;;;5052034;28;20209;-63
2021/12/03 19:16:20;;;;;;;10.90;7.33;;;;;;;;;;5061458;28;20673;-63
2021/12/03 19:18:50;;;;;;;9.03;7.67;;;;;;;;;;5055555;28;20203;-63
2021/12/03 19:21:22;;;;;;;12.77;8.67;;;;;;;;;;5064745;28;20235;-63
2021/12/03 19:23:55;;;;;;;10.07;7.83;;;;;;;;;;5059619;28;20207;-63
2021/12/03 19:26:22;;;;;;;12.23;8.43;;;;;;;;;;5064092;28;20540;-63
2021/12/03 19:28:50;;;;;;;12.43;8.30;;;;;;;;;;5060968;28;20223;-63
2021/12/03 19:31:20;;;;;;;12.63;8.40;;;;;;;;;;5064620;28;20703;-62
2021/12/03 19:33:48;;;;;;;13.03;8.30;;;;;;;;;;5060730;28;20207;-63
2021/12/03 19:36:23;;;;;;;18.20;10.57;;;;;;;;;;5074346;28;20207;-63
2021/12/03 19:38:57;;;;;;;19.73;12.37;;;;;;;;;;5066603;28;20287;-63
2021/12/03 19:41:39;;;;;;;15.17;10.80;;;;;;;;;;5079282;28;20688;-63
2021/12/03 19:44:29;;;;;;;11.10;9.03;;;;;;;;;;5063205;28;20627;-62
2021/12/03 19:46:56;;;;;;;12.77;9.10;;;;;;;;;;5059811;28;20211;-63
2021/12/03 19:52:24;;;;;;;11.67;9.33;;;;;;;;;;5060744;28;20257;-62
2021/12/03 19:54:53;;;;;;;13.47;9.77;;;;;;;;;;5081003;28;20614;-63
2021/12/03 19:57:21;;;;;;;9.40;7.90;;;;;;;;;;5064680;28;20715;-63
2021/12/03 19:59:49;;;;;;;16.83;9.13;;;;;;;;;;5075165;28;20236;-63
2021/12/03 20:02:17;;;;;;;10.40;7.77;;;;;;;;;;5079277;28;20447;-63
2021/12/03 20:04:45;;;;;;;10.37;8.17;;;;;;;;;;5060651;28;20638;-63
2021/12/03 20:07:13;;;;;;;12.93;9.07;;;;;;;;;;5083174;28;20576;-63
2021/12/03 20:09:46;;;;;;;13.87;7.90;;;;;;;;;;5054825;28;20235;-63
2021/12/03 20:12:19;;;;;;;9.27;7.57;;;;;;;;;;5071500;28;20213;-63
2021/12/03 20:14:48;;;;;;;10.07;8.60;;;;;;;;;;5064143;28;20208;-63
2021/12/03 20:17:23;;;;;;;11.43;8.27;;;;;;;;;;5058403;28;20209;-63
2021/12/03 20:19:52;;;;;;;9.87;7.60;;;;;;;;;;5076921;28;20239;-63
2021/12/03 20:22:34;;;;;;;9.40;8.10;;;;;;;;;;5076282;28;20212;-63
2021/12/03 20:27:46;;;;;;;11.13;8.43;;;;;;;;;;5059669;28;20201;-63
2021/12/03 20:30:16;;;;;;;10.07;7.47;;;;;;;;;;5075644;28;20227;-63
2021/12/03 20:33:08;;;;;;;11.73;7.63;;;;;;;;;;5068923;28;20703;-62
2021/12/03 20:36:14;;;;;;;9.73;7.53;;;;;;;;;;5062077;28;20238;-62
2021/12/03 20:38:29;;;;;;;9.67;7.60;;;;;;;;;;5062416;28;20240;-63
2021/12/03 20:41:03;;;;;;;10.77;7.83;;;;;;;;;;5077330;28;20236;-64
2021/12/03 21:09:46;;;;;;;10.70;7.10;;;;;;;;;;5060216;28;20270;-62
2021/12/03 21:14:54;;;;;;;7.83;6.77;;;;;;;;;;5060967;28;20212;-62
2021/12/03 21:22:43;;;;;;;8.57;6.03;;;;;;;;;;5057080;28;20201;-63
2021/12/03 21:25:14;;;;;;;9.20;6.50;;;;;;;;;;5072461;28;20199;-62
2021/12/03 21:27:43;;;;;;;11.77;7.20;;;;;;;;;;5062386;28;20226;-63
2021/12/03 21:43:18;;;;;;;9.33;6.77;;;;;;;;;;5051974;28;20207;-63
2021/12/03 21:45:46;;;;;;;7.17;6.30;;;;;;;;;;5059205;28;20217;-63
2021/12/03 21:48:13;;;;;;;6.97;6.27;;;;;;;;;;5060288;28;20209;-62
2021/12/03 21:50:41;;;;;;;8.03;6.30;;;;;;;;;;5076394;28;20229;-64
2021/12/03 21:53:08;;;;;;;8.33;5.87;;;;;;;;;;5075961;28;20662;-64
2021/12/03 21:55:39;;;;;;;7.60;6.47;;;;;;;;;;5084233;28;20829;-64
2021/12/03 21:58:06;;;;;;;8.30;6.33;;;;;;;;;;5078052;28;20266;-64
2021/12/03 22:00:34;;;;;;;7.97;6.20;;;;;;;;;;5068930;28;21152;-63
2021/12/03 22:03:02;;;;;;;6.20;5.60;;;;;;;;;;5058106;28;20213;-63
2021/12/03 22:05:29;;;;;;;7.87;5.93;;;;;;;;;;5058796;28;20262;-63
2021/12/03 22:07:57;;;;;;;9.07;6.90;;;;;;;;;;5080065;28;20216;-63
2021/12/03 22:10:25;;;;;;;8.63;6.20;;;;;;;;;;5057854;28;20225;-63
2021/12/03 22:12:52;;;;;;;7.30;6.10;;;;;;;;;;5065704;28;20225;-64
2021/12/03 22:15:21;;;;;;;7.43;5.93;;;;;;;;;;5060719;28;20338;-64
2021/12/03 22:17:48;;;;;;;8.93;6.60;;;;;;;;;;5069234;28;20834;-62
2021/12/03 22:20:16;;;;;;;8.37;6.40;;;;;;;;;;5083594;28;20232;-62
2021/12/03 22:22:43;;;;;;;11.10;5.97;;;;;;;;;;5058952;28;20205;-63
2021/12/03 22:25:10;;;;;;;9.60;7.20;;;;;;;;;;5070170;28;20201;-62
2021/12/03 22:27:38;;;;;;;7.57;6.60;;;;;;;;;;5062842;28;20728;-63
2021/12/03 22:30:06;;;;;;;8.73;7.13;;;;;;;;;;5056235;28;20229;-62
2021/12/03 22:32:33;;;;;;;8.77;7.07;;;;;;;;;;5061641;28;20208;-63
2021/12/03 22:35:01;;;;;;;8.33;7.10;;;;;;;;;;5060607;28;20213;-63
2021/12/03 22:37:28;;;;;;;15.60;10.37;;;;;;;;;;5059553;28;20201;-63
2021/12/03 22:39:55;;;;;;;12.77;9.63;;;;;;;;;;5057356;28;20319;-63
2021/12/03 22:42:23;;;;;;;11.50;7.57;;;;;;;;;;5074735;28;20200;-63
2021/12/03 22:44:50;;;;;;;10.30;7.93;;;;;;;;;;5049077;28;20202;-62
2021/12/03 22:47:21;;;;;;;10.47;7.83;;;;;;;;;;5075324;28;20212;-65
2021/12/03 22:52:19;;;;;;;12.77;7.87;;;;;;;;;;5065281;28;20337;-63
2021/12/03 22:54:47;;;;;;;12.40;8.43;;;;;;;;;;5062745;28;20209;-63
2021/12/03 22:57:19;;;;;;;10.20;8.17;;;;;;;;;;5072237;28;20208;-63
2021/12/03 22:59:48;;;;;;;10.47;7.47;;;;;;;;;;5063102;28;20231;-63
2021/12/03 23:02:16;;;;;;;13.13;8.80;;;;;;;;;;5063573;28;20260;-62
2021/12/03 23:04:44;;;;;;;9.40;7.10;;;;;;;;;;5073523;28;20213;-64
2021/12/03 23:07:13;;;;;;;9.37;7.07;;;;;;;;;;5059623;28;20236;-62
2021/12/03 23:09:41;;;;;;;8.43;6.63;;;;;;;;;;5059793;28;20232;-63
2021/12/03 23:12:09;;;;;;;7.30;6.03;;;;;;;;;;5053707;28;20211;-63
2021/12/03 23:14:36;;;;;;;9.93;7.07;;;;;;;;;;5068554;28;20676;-62
2021/12/03 23:17:03;;;;;;;12.00;7.53;;;;;;;;;;5074679;28;20199;-63
2021/12/03 23:19:32;;;;;;;9.27;6.60;;;;;;;;;;5072269;28;23036;-62
2021/12/03 23:22:00;;;;;;;11.20;6.90;;;;;;;;;;5056997;28;20243;-62
2021/12/03 23:24:30;;;;;;;9.37;6.73;;;;;;;;;;5062553;28;20581;-63